createdAt,value
2023-01-04T00:00:39.002Z,79.84
2023-01-04T00:03:11.674Z,79.34
2023-01-04T00:05:44.362Z,79.90
2023-01-04T00:08:17.056Z,79.32
2023-01-04T00:10:49.647Z,79.69
2023-01-04T00:13:22.019Z,79.32
2023-01-04T00:15:54.406Z,79.28
2023-01-04T00:18:26.813Z,79.51
2023-01-04T00:21:11.212Z,78.77
2023-01-04T00:23:45.555Z,78.61
2023-01-04T00:26:20.777Z,79.24
2023-01-04T00:28:57.773Z,79.50
2023-01-04T00:31:31.025Z,79.31
2023-01-04T00:34:05.124Z,79.32
2023-01-04T00:36:37.612Z,79.67
2023-01-04T00:39:12.525Z,79.60
2023-01-04T00:41:59.198Z,79.66
2023-01-04T00:44:24.752Z,79.63
2023-01-04T00:46:57.167Z,79.07
2023-01-04T00:49:30.214Z,79.59
2023-01-04T00:52:02.920Z,79.32
2023-01-04T00:54:35.606Z,79.49
2023-01-04T00:57:09.113Z,79.30
2023-01-04T00:59:41.822Z,79.47
2023-01-04T01:02:14.343Z,79.12
2023-01-04T01:04:46.999Z,78.46
2023-01-04T01:07:20.151Z,78.87
2023-01-04T01:09:52.504Z,78.97
2023-01-04T01:12:25.496Z,78.05
2023-01-04T01:15:00.548Z,78.66
2023-01-04T01:17:31.813Z,78.58
2023-01-04T01:20:04.707Z,78.29
2023-01-04T01:22:37.867Z,78.54
2023-01-04T01:25:10.960Z,78.26
2023-01-04T01:27:43.423Z,78.19
2023-01-04T01:30:16.238Z,78.66
2023-01-04T01:32:48.878Z,78.38
2023-01-04T01:35:21.895Z,78.61
2023-01-04T01:37:54.319Z,78.54
2023-01-04T01:40:28.617Z,79.00
2023-01-04T01:43:01.367Z,79.05
2023-01-04T01:45:35.738Z,78.65
2023-01-04T01:48:15.854Z,78.78
2023-01-04T01:51:00.741Z,79.37
2023-01-04T01:53:37.083Z,79.01
2023-01-04T01:56:10.137Z,78.48
2023-01-04T01:58:46.338Z,78.57
2023-01-04T02:01:19.001Z,78.32
2023-01-04T02:03:51.660Z,77.76
2023-01-04T02:06:29.394Z,78.38
2023-01-04T02:09:03.417Z,78.62
2023-01-04T02:11:37.050Z,79.13
2023-01-04T02:14:28.198Z,78.76
2023-01-04T02:17:39.388Z,78.67
2023-01-04T02:20:25.830Z,78.58
2023-01-04T02:23:20.602Z,78.63
2023-01-04T02:26:01.497Z,78.43
2023-01-04T02:28:50.805Z,79.08
2023-01-04T02:31:51.854Z,78.32
2023-01-04T02:34:54.808Z,78.71
2023-01-04T02:37:46.663Z,79.16
2023-01-04T02:40:24.711Z,79.32
2023-01-04T02:43:38.618Z,79.26
2023-01-04T02:46:30.642Z,79.09
2023-01-04T02:49:21.255Z,79.42
2023-01-04T02:51:53.858Z,79.84
2023-01-04T02:54:32.733Z,79.86
2023-01-04T02:57:18.633Z,80.16
2023-01-04T03:00:10.919Z,79.35
2023-01-04T03:03:26.869Z,79.80
2023-01-04T03:06:16.545Z,79.90
2023-01-04T03:09:02.782Z,80.00
2023-01-04T03:12:18.590Z,79.49
2023-01-04T03:14:59.669Z,79.43
2023-01-04T03:17:43.175Z,80.22
2023-01-04T03:20:15.505Z,80.62
2023-01-04T03:23:10.608Z,80.62
2023-01-04T03:26:05.147Z,79.83
2023-01-04T03:28:56.367Z,80.69
2023-01-04T03:31:53.409Z,80.76
2023-01-04T03:34:43.689Z,81.70
2023-01-04T03:37:46.471Z,81.10
2023-01-04T03:40:46.404Z,81.04
2023-01-04T03:43:40.399Z,81.15
2023-01-04T03:46:41.439Z,81.09
2023-01-04T03:49:27.662Z,81.08
2023-01-04T03:52:02.402Z,80.98
2023-01-04T03:54:43.872Z,80.91
2023-01-04T03:57:17.529Z,81.13
2023-01-04T03:59:53.841Z,81.57
2023-01-04T04:02:32.075Z,81.75
2023-01-04T04:05:22.653Z,81.82
2023-01-04T04:08:13.772Z,82.22
2023-01-04T04:10:46.532Z,82.44
2023-01-04T04:13:19.478Z,82.63
2023-01-04T04:15:54.979Z,82.35
2023-01-04T04:18:28.400Z,82.10
2023-01-04T04:21:00.973Z,82.75
2023-01-04T04:23:33.750Z,83.06
2023-01-04T04:26:06.509Z,82.74
2023-01-04T04:28:39.613Z,82.89
2023-01-04T04:31:12.052Z,82.57
2023-01-04T04:33:44.504Z,82.35
2023-01-04T04:36:16.919Z,82.43
2023-01-04T04:38:49.440Z,82.24
2023-01-04T04:41:41.739Z,81.83
2023-01-04T04:44:20.561Z,81.85
2023-01-04T04:46:52.981Z,82.33
2023-01-04T04:49:25.353Z,81.75
2023-01-04T04:51:58.036Z,82.34
2023-01-04T04:54:30.707Z,82.37
2023-01-04T04:57:03.076Z,82.17
2023-01-04T04:59:36.975Z,81.86
2023-01-04T05:02:09.867Z,82.03
2023-01-04T05:04:42.535Z,82.44
2023-01-04T05:07:14.949Z,82.23
2023-01-04T05:09:47.487Z,81.65
2023-01-04T05:12:37.740Z,81.81
2023-01-04T05:15:10.849Z,81.42
2023-01-04T05:17:43.600Z,81.27
2023-01-04T05:20:16.459Z,80.83
2023-01-04T05:22:49.200Z,81.05
2023-01-04T05:25:21.774Z,81.33
2023-01-04T05:27:54.400Z,81.81
2023-01-04T05:30:44.756Z,81.38
2023-01-04T05:33:18.041Z,80.54
2023-01-04T05:35:50.813Z,81.06
2023-01-04T05:38:23.399Z,80.62
2023-01-04T05:40:56.132Z,80.90
2023-01-04T05:43:28.495Z,80.88
2023-01-04T05:46:01.159Z,80.55
2023-01-04T05:48:33.712Z,80.74
2023-01-04T05:51:06.373Z,80.56
2023-01-04T05:53:40.115Z,80.90
2023-01-04T05:56:12.607Z,80.73
2023-01-04T05:58:45.985Z,80.88
2023-01-04T06:01:18.317Z,80.72
2023-01-04T06:03:51.323Z,80.10
2023-01-04T06:06:25.069Z,80.57
2023-01-04T06:08:58.089Z,80.72
2023-01-04T06:11:30.716Z,80.91
2023-01-04T06:14:03.402Z,81.21
2023-01-04T06:16:36.107Z,81.18
2023-01-04T06:19:09.004Z,80.94
2023-01-04T06:21:41.323Z,80.70
2023-01-04T06:24:14.060Z,80.18
2023-01-04T06:26:47.263Z,80.72
2023-01-04T06:29:19.705Z,80.28
2023-01-04T06:31:52.298Z,80.33
2023-01-04T06:34:30.480Z,81.06
2023-01-04T06:37:00.203Z,80.81
2023-01-04T06:39:33.613Z,80.01
2023-01-04T06:42:08.630Z,80.07
2023-01-04T06:44:41.517Z,80.06
2023-01-04T06:47:14.090Z,80.54
2023-01-04T06:49:46.659Z,81.05
2023-01-04T06:52:20.074Z,80.78
2023-01-04T06:54:52.639Z,80.58
2023-01-04T06:57:25.955Z,80.36
2023-01-04T06:59:58.416Z,80.25
2023-01-04T07:02:31.175Z,80.69
2023-01-04T07:05:04.858Z,80.29
2023-01-04T07:07:37.887Z,79.58
2023-01-04T07:10:11.436Z,80.15
2023-01-04T07:12:44.704Z,79.60
2023-01-04T07:15:39.803Z,80.19
2023-01-04T07:17:52.995Z,80.72
2023-01-04T07:20:25.463Z,80.66
2023-01-04T07:22:58.562Z,80.49
2023-01-04T07:25:31.174Z,79.54
2023-01-04T07:28:03.763Z,79.94
2023-01-04T07:30:37.181Z,80.24
2023-01-04T07:33:09.834Z,79.93
2023-01-04T07:35:42.443Z,79.16
2023-01-04T07:38:15.210Z,79.15
2023-01-04T07:40:56.050Z,78.81
2023-01-04T07:43:28.350Z,79.53
2023-01-04T07:46:00.120Z,79.62
2023-01-04T07:48:33.112Z,79.17
2023-01-04T07:51:05.623Z,79.24
2023-01-04T07:53:38.036Z,79.33
2023-01-04T07:56:13.738Z,78.59
2023-01-04T07:58:44.511Z,78.79
2023-01-04T08:01:21.060Z,78.63
2023-01-04T08:03:53.816Z,79.43
2023-01-04T08:06:26.197Z,80.31
2023-01-04T08:09:00.398Z,80.11
2023-01-04T08:11:33.257Z,79.99
2023-01-04T08:14:05.641Z,79.48
2023-01-04T08:16:40.332Z,79.56
2023-01-04T08:19:20.436Z,79.11
2023-01-04T08:21:53.841Z,78.35
2023-01-04T08:24:27.611Z,78.55
2023-01-04T08:27:00.374Z,79.36
2023-01-04T08:29:35.273Z,79.92
2023-01-04T08:32:29.159Z,79.19
2023-01-04T08:35:01.678Z,78.80
2023-01-04T08:37:35.634Z,79.67
2023-01-04T08:40:58.831Z,79.95
2023-01-04T08:43:02.891Z,80.79
2023-01-04T08:45:35.372Z,81.13
2023-01-04T08:48:08.267Z,81.29
2023-01-04T08:50:40.989Z,81.07
2023-01-04T08:53:13.757Z,82.48
2023-01-04T08:55:51.943Z,83.40
2023-01-04T08:58:24.883Z,84.34
2023-01-04T09:01:03.466Z,84.33
2023-01-04T09:03:36.612Z,84.85
2023-01-04T09:06:12.596Z,85.49
2023-01-04T09:08:45.586Z,85.69
2023-01-04T09:11:20.912Z,86.18
2023-01-04T09:14:06.854Z,86.01
2023-01-04T09:16:32.939Z,86.72
2023-01-04T09:19:06.048Z,87.05
2023-01-04T09:21:39.226Z,87.06
2023-01-04T09:24:12.042Z,87.21
2023-01-04T09:26:44.707Z,86.77
2023-01-04T09:29:17.726Z,86.76
2023-01-04T09:31:50.635Z,87.76
2023-01-04T09:34:23.457Z,89.38
2023-01-04T09:36:55.994Z,90.92
2023-01-04T09:39:30.301Z,91.62
2023-01-04T09:42:04.413Z,89.32
2023-01-04T09:47:46.908Z,88.71
2023-01-04T09:50:24.505Z,89.91
2023-01-04T09:53:07.603Z,90.29
2023-01-04T09:55:45.934Z,91.18
2023-01-04T09:58:37.902Z,92.00
2023-01-04T10:01:17.034Z,90.64
2023-01-04T10:04:03.187Z,89.82
2023-01-04T10:06:36.289Z,90.02
2023-01-04T10:09:15.689Z,90.03
2023-01-04T10:12:08.710Z,91.28
2023-01-04T10:15:34.963Z,91.60
2023-01-04T10:20:07.917Z,92.38
2023-01-04T10:21:29.578Z,91.68
2023-01-04T10:24:12.553Z,91.72
2023-01-04T10:26:50.810Z,92.19
2023-01-04T10:29:45.870Z,92.39
2023-01-04T10:32:29.244Z,92.62
2023-01-04T10:35:02.301Z,92.94
2023-01-04T10:37:36.915Z,93.56
2023-01-04T10:40:14.963Z,93.84
2023-01-04T10:43:09.395Z,94.29
2023-01-04T10:45:48.148Z,94.36
2023-01-04T10:48:48.892Z,94.23
2023-01-04T10:51:34.856Z,94.29
2023-01-04T10:54:23.982Z,93.47
2023-01-04T10:57:05.105Z,93.02
2023-01-04T11:00:07.405Z,93.46
2023-01-04T11:03:09.355Z,93.64
2023-01-04T11:06:02.874Z,93.05
2023-01-04T11:08:39.118Z,92.33
2023-01-04T11:11:19.402Z,91.81
2023-01-04T11:13:52.075Z,93.67
2023-01-04T11:16:24.994Z,93.83
2023-01-04T11:18:57.615Z,90.53
2023-01-04T11:21:35.184Z,88.98
2023-01-04T11:24:30.918Z,87.98
2023-01-04T11:26:45.108Z,87.90
2023-01-04T11:30:09.310Z,87.34
2023-01-04T11:33:07.172Z,84.88
2023-01-04T11:35:48.784Z,85.89
2023-01-04T11:38:24.764Z,84.79
2023-01-04T11:41:08.770Z,86.04
2023-01-04T11:43:41.392Z,86.06
2023-01-04T11:46:24.678Z,85.88
2023-01-04T11:48:57.677Z,85.36
2023-01-04T11:51:36.852Z,85.14
2023-01-04T11:54:20.554Z,85.49
2023-01-04T11:57:12.051Z,85.03
2023-01-04T11:59:45.297Z,84.81
2023-01-04T12:05:01.169Z,84.29
2023-01-04T12:07:36.195Z,84.41
2023-01-04T12:10:25.570Z,84.35
2023-01-04T12:13:00.681Z,84.53
2023-01-04T12:16:06.282Z,84.58
2023-01-04T12:18:45.120Z,84.92
2023-01-04T12:21:23.607Z,84.32
2023-01-04T12:23:56.553Z,83.55
2023-01-04T12:26:29.143Z,85.18
2023-01-04T12:29:26.676Z,84.72
2023-01-04T12:32:30.616Z,84.42
2023-01-04T12:35:03.128Z,83.32
2023-01-04T12:37:49.915Z,82.75
2023-01-04T12:40:49.920Z,82.65
2023-01-04T12:43:26.870Z,82.79
2023-01-04T12:46:51.283Z,82.44
2023-01-04T12:49:35.880Z,82.54
2023-01-04T12:52:38.246Z,82.21
2023-01-04T12:54:55.138Z,82.04
2023-01-04T12:57:36.839Z,82.46
2023-01-04T13:00:11.660Z,84.47
2023-01-04T13:03:08.921Z,83.97
2023-01-04T13:05:57.909Z,82.98
2023-01-04T13:08:16.151Z,82.20
2023-01-04T13:10:55.317Z,81.90
2023-01-04T13:13:46.908Z,81.77
2023-01-04T13:16:47.508Z,81.13
2023-01-04T13:19:26.013Z,78.55
2023-01-04T13:21:59.071Z,78.88
2023-01-04T13:24:35.607Z,80.52
2023-01-04T13:27:11.835Z,79.86
2023-01-04T13:29:44.523Z,80.30
2023-01-04T13:32:46.942Z,80.13
2023-01-04T13:35:14.784Z,80.08
2023-01-04T13:37:51.521Z,79.37
2023-01-04T13:40:37.722Z,78.46
2023-01-04T13:43:38.559Z,78.68
2023-01-04T13:46:27.548Z,79.37
2023-01-04T13:49:01.914Z,79.02
2023-01-04T13:51:38.686Z,79.47
2023-01-04T13:54:23.289Z,78.82
2023-01-04T13:56:58.613Z,77.37
2023-01-04T13:59:31.065Z,77.76
2023-01-04T14:02:03.773Z,77.96
2023-01-04T14:04:36.884Z,77.80
2023-01-04T14:07:09.890Z,76.78
2023-01-04T14:10:06.439Z,78.21
2023-01-04T14:12:39.092Z,78.94
2023-01-04T14:15:25.952Z,79.82
2023-01-04T14:17:59.219Z,80.33
2023-01-04T14:20:34.914Z,80.76
2023-01-04T14:23:08.858Z,81.01
2023-01-04T14:25:48.328Z,80.82
2023-01-04T14:28:36.117Z,81.47
2023-01-04T14:31:13.834Z,81.76
2023-01-04T14:33:51.372Z,82.08
2023-01-04T14:36:30.555Z,81.90
2023-01-04T14:39:11.356Z,82.05
2023-01-04T14:41:46.485Z,81.51
2023-01-04T14:44:21.669Z,81.72
2023-01-04T14:46:56.157Z,81.34
2023-01-04T14:49:30.255Z,82.12
2023-01-04T14:52:04.938Z,82.07
2023-01-04T14:54:38.984Z,81.59
2023-01-04T14:57:11.955Z,80.94
2023-01-04T14:59:46.216Z,81.86
2023-01-04T15:02:20.645Z,82.15
2023-01-04T15:04:53.470Z,81.98
2023-01-04T15:07:39.972Z,81.48
2023-01-04T15:10:27.941Z,81.20
2023-01-04T15:13:02.260Z,81.00
2023-01-04T15:15:34.939Z,81.54
2023-01-04T15:18:07.825Z,81.55
2023-01-04T15:20:41.562Z,81.70
2023-01-04T15:23:13.887Z,81.85
2023-01-04T15:25:47.450Z,82.54
2023-01-04T15:28:21.991Z,82.83
2023-01-04T15:30:53.820Z,82.98
2023-01-04T15:33:27.386Z,82.57
2023-01-04T15:36:09.362Z,82.30
2023-01-04T15:38:41.961Z,82.81
2023-01-04T15:41:35.783Z,82.48
2023-01-04T15:44:10.189Z,82.57
2023-01-04T15:46:43.684Z,82.58
2023-01-04T15:49:17.774Z,82.41
2023-01-04T15:51:50.231Z,82.68
2023-01-04T15:54:24.326Z,82.87
2023-01-04T15:56:56.934Z,83.10
2023-01-04T15:59:29.492Z,82.99
2023-01-04T16:02:01.945Z,83.15
2023-01-04T16:04:34.676Z,82.81
2023-01-04T16:07:07.307Z,83.13
2023-01-04T16:09:40.427Z,83.24
2023-01-04T16:12:31.030Z,83.96
2023-01-04T16:15:04.032Z,83.73
2023-01-04T16:17:36.701Z,84.01
2023-01-04T16:20:09.649Z,83.60
2023-01-04T16:22:42.424Z,83.26
2023-01-04T16:25:15.845Z,83.12
2023-01-04T16:27:48.426Z,83.62
2023-01-04T16:30:27.765Z,83.73
2023-01-04T16:32:55.937Z,83.79
2023-01-04T16:35:28.371Z,83.65
2023-01-04T16:38:01.490Z,83.72
2023-01-04T16:40:34.578Z,83.87
2023-01-04T16:43:07.244Z,84.55
2023-01-04T16:45:41.072Z,84.45
2023-01-04T16:48:18.453Z,84.70
2023-01-04T16:50:48.947Z,84.89
2023-01-04T16:53:21.521Z,85.01
2023-01-04T16:55:53.936Z,85.54
2023-01-04T16:58:26.400Z,85.54
2023-01-04T17:01:08.672Z,85.62
2023-01-04T17:03:42.353Z,86.14
2023-01-04T17:06:20.802Z,86.68
2023-01-04T17:08:55.558Z,87.07
2023-01-04T17:14:06.647Z,87.55
2023-01-04T17:16:40.992Z,87.69
2023-01-04T17:19:14.034Z,87.72
2023-01-04T17:21:46.782Z,88.22
2023-01-04T17:24:19.505Z,88.77
2023-01-04T17:26:51.925Z,89.10
2023-01-04T17:29:25.029Z,89.01
2023-01-04T17:31:57.805Z,89.02
2023-01-04T17:34:30.272Z,88.92
2023-01-04T17:37:02.678Z,89.19
2023-01-04T17:39:35.616Z,89.14
2023-01-04T17:42:08.108Z,89.21
2023-01-04T17:44:40.565Z,89.54
2023-01-04T17:47:13.044Z,89.68
2023-01-04T17:49:45.421Z,89.92
2023-01-04T17:52:24.470Z,89.91
2023-01-04T17:54:52.354Z,90.10
2023-01-04T17:57:25.334Z,90.35
2023-01-04T17:59:57.792Z,90.56
2023-01-04T18:02:30.740Z,90.74
2023-01-04T18:05:05.384Z,90.92
2023-01-04T18:07:38.006Z,91.09
2023-01-04T18:10:20.616Z,91.19
2023-01-04T18:12:47.410Z,91.11
2023-01-04T18:15:19.966Z,91.29
2023-01-04T18:17:53.044Z,91.47
2023-01-04T18:20:27.262Z,91.69
2023-01-04T18:22:59.952Z,91.92
2023-01-04T18:25:34.709Z,92.02
2023-01-04T18:28:06.416Z,91.92
2023-01-04T18:30:38.948Z,91.42
2023-01-04T18:33:11.523Z,91.40
2023-01-04T18:35:44.076Z,91.27
2023-01-04T18:38:17.199Z,91.82
2023-01-04T18:40:50.018Z,91.39
2023-01-04T18:43:22.449Z,91.09
2023-01-04T18:45:54.962Z,91.35
2023-01-04T18:48:28.402Z,90.79
2023-01-04T18:51:06.690Z,90.52
2023-01-04T18:53:39.519Z,90.74
2023-01-04T18:56:11.965Z,90.63
2023-01-04T18:58:44.364Z,90.30
2023-01-04T19:01:19.665Z,90.41
2023-01-04T19:03:52.394Z,89.83
2023-01-04T19:06:25.209Z,89.63
2023-01-04T19:09:02.876Z,89.73
2023-01-04T19:11:32.353Z,89.74
2023-01-04T19:14:05.190Z,90.16
2023-01-04T19:16:38.021Z,90.04
2023-01-04T19:19:11.813Z,89.63
2023-01-04T19:21:44.484Z,89.52
2023-01-04T19:24:16.917Z,89.15
2023-01-04T19:26:49.518Z,89.16
2023-01-04T19:29:23.012Z,88.58
2023-01-04T19:31:56.747Z,88.26
2023-01-04T19:34:29.441Z,87.68
2023-01-04T19:37:02.862Z,87.55
2023-01-04T19:39:35.483Z,87.29
2023-01-04T19:42:08.020Z,86.96
2023-01-04T19:44:40.468Z,86.21
2023-01-04T19:47:13.563Z,86.41
2023-01-04T19:49:46.496Z,86.06
2023-01-04T19:52:19.008Z,85.54
2023-01-04T19:54:51.626Z,85.55
2023-01-04T19:57:23.944Z,85.61
2023-01-04T19:59:56.533Z,85.78
2023-01-04T20:02:29.445Z,85.70
2023-01-04T20:05:02.560Z,85.30
2023-01-04T20:07:35.869Z,85.45
2023-01-04T20:10:29.881Z,84.77
2023-01-04T20:13:02.827Z,84.22
2023-01-04T20:15:35.497Z,85.25
2023-01-04T20:18:13.653Z,84.57
2023-01-04T20:20:43.789Z,84.09
2023-01-04T20:23:16.155Z,84.10
2023-01-04T20:25:50.740Z,84.24
2023-01-04T20:28:25.043Z,83.83
2023-01-04T20:31:09.490Z,83.51
2023-01-04T20:33:42.184Z,83.63
2023-01-04T20:36:17.718Z,84.42
2023-01-04T20:38:50.399Z,84.98
2023-01-04T20:41:24.557Z,84.46
2023-01-04T20:43:57.102Z,83.88
2023-01-04T20:46:32.880Z,84.31
2023-01-04T20:49:05.776Z,85.06
2023-01-04T20:51:38.210Z,85.07
2023-01-04T20:54:11.256Z,85.09
2023-01-04T20:56:43.712Z,84.87
2023-01-04T20:59:16.248Z,84.48
2023-01-04T21:01:49.661Z,83.65
2023-01-04T21:04:22.332Z,83.65
2023-01-04T21:06:54.875Z,84.08
2023-01-04T21:09:27.824Z,83.65
2023-01-04T21:12:04.901Z,83.97
2023-01-04T21:14:36.740Z,84.05
2023-01-04T21:17:09.459Z,84.33
2023-01-04T21:19:42.442Z,84.40
2023-01-04T21:22:14.893Z,84.07
2023-01-04T21:24:47.286Z,83.56
2023-01-04T21:27:19.806Z,83.65
2023-01-04T21:29:53.335Z,83.56
2023-01-04T21:32:27.873Z,83.18
2023-01-04T21:35:00.290Z,83.51
2023-01-04T21:37:32.988Z,83.65
2023-01-04T21:40:06.503Z,83.84
2023-01-04T21:42:39.225Z,83.87
2023-01-04T21:45:12.135Z,83.69
2023-01-04T21:47:44.946Z,83.54
2023-01-04T21:50:17.826Z,83.94
2023-01-04T21:52:50.224Z,83.38
2023-01-04T21:55:22.852Z,83.46
2023-01-04T21:57:55.224Z,83.43
2023-01-04T22:00:27.930Z,82.94
2023-01-04T22:03:01.057Z,83.31
2023-01-04T22:05:33.645Z,83.26
2023-01-04T22:08:06.694Z,82.93
2023-01-04T22:10:39.491Z,83.00
2023-01-04T22:13:12.020Z,82.61
2023-01-04T22:15:45.388Z,82.50
2023-01-04T22:18:18.912Z,82.61
2023-01-04T22:20:51.541Z,81.94
2023-01-04T22:23:24.057Z,82.76
2023-01-04T22:25:58.785Z,82.46
2023-01-04T22:28:36.514Z,83.11
2023-01-04T22:31:07.451Z,83.06
2023-01-04T22:33:40.894Z,82.75
2023-01-04T22:36:22.380Z,82.68
2023-01-04T22:38:51.298Z,84.23
2023-01-04T22:41:26.639Z,83.75
2023-01-04T22:44:03.501Z,83.62
2023-01-04T22:46:36.883Z,83.90
2023-01-04T22:49:10.452Z,83.94
2023-01-04T22:51:42.937Z,84.03
2023-01-04T22:54:15.402Z,85.04
2023-01-04T22:56:49.376Z,84.88
2023-01-04T22:59:23.333Z,84.67
2023-01-04T23:01:56.012Z,84.71
2023-01-04T23:04:29.186Z,83.91
2023-01-04T23:07:01.838Z,83.68
2023-01-04T23:09:34.307Z,84.59
2023-01-04T23:12:07.836Z,84.56
2023-01-04T23:14:40.602Z,84.87
2023-01-04T23:17:13.266Z,84.54
2023-01-04T23:19:45.934Z,83.82
2023-01-04T23:22:18.627Z,84.69
2023-01-04T23:24:51.513Z,85.13
2023-01-04T23:27:24.297Z,84.26
2023-01-04T23:29:57.161Z,84.32
2023-01-04T23:32:30.346Z,84.90
2023-01-04T23:35:02.825Z,84.80
2023-01-04T23:37:36.704Z,84.59
2023-01-04T23:40:10.904Z,84.81
2023-01-04T23:42:43.457Z,84.86
2023-01-04T23:45:15.899Z,85.33
2023-01-04T23:47:50.202Z,85.37
2023-01-04T23:50:22.846Z,84.92
2023-01-04T23:52:55.549Z,85.35
2023-01-04T23:55:28.184Z,85.81
2023-01-04T23:58:01.215Z,85.02
